»·PEaware :: N8107T KPSP-KLAX

N8107T :: KPSP-KLAX

FLIGHT INFORMATION

Flight Status: Arrived
Operator: Privately registered:
United States
More flights under this callsign
Pilot: Charan K. (66)
Aircraft: Unknown
(LNC4)
More flights by this aircraft type
Origin: KPSP Palm Springs Intl
United States
Destination: KLAX Los Angeles Intl
United States
More flights between these airports :: More routes between these airports
Route: +V388 PDZ V16 LAHAB
File this flight plan on PilotEdge
Remarks: / V /
Altitude:
(Current/Filed)
12,000ft
Speed:
(Current/Filed)
250kts
Departed: 28-Dec-11 06:08 PM
Arrived: 28-Dec-11 06:43 PM
Distance/Time
Traveled:
95nm/0:35
Distance/Time
To Go:
Arrived

Flight Plot

Page will automatically refresh every two minutes.


Map Options




Map Legend


Flown Route
Filed Route
Departure Airport
Arrival Airport
Navaid (VOR, NDB)
Fix

Horizontal Profiles

Position Reports

Time Latitude Longitude Heading Altitude Ground
Speed
28-Dec-11 17:52 33.823998 -116.497432 53 481ft 0kts
28-Dec-11 17:53 33.823999 -116.497432 53 481ft 0kts
28-Dec-11 17:54 33.823999 -116.497431 53 481ft 0kts
28-Dec-11 17:55 33.824000 -116.497430 53 481ft 0kts
28-Dec-11 17:56 33.824000 -116.497430 53 481ft 0kts
28-Dec-11 17:57 33.824001 -116.497429 53 481ft 0kts
28-Dec-11 17:58 33.824001 -116.497428 53 481ft 0kts
28-Dec-11 17:59 33.824001 -116.497428 53 481ft 0kts
28-Dec-11 18:00 33.824002 -116.497427 53 481ft 0kts
28-Dec-11 18:01 33.824102 -116.497623 221 481ft 0kts
28-Dec-11 18:02 33.824102 -116.497624 221 481ft 0kts
28-Dec-11 18:03 33.822228 -116.496852 144 481ft 15kts
28-Dec-11 18:04 33.819719 -116.494564 150 481ft 0kts
28-Dec-11 18:05 33.819267 -116.494991 232 481ft 15kts
28-Dec-11 18:06 33.818354 -116.497588 322 481ft 22kts
28-Dec-11 18:07 33.842086 -116.506553 59 997ft 139kts
28-Dec-11 18:08 33.823207 -116.461359 122 2341ft 157kts
28-Dec-11 18:09 33.800161 -116.415357 123 3815ft 157kts
28-Dec-11 18:10 33.777365 -116.369605 102 4629ft 161kts
28-Dec-11 18:11 33.811996 -116.376806 315 5408ft 172kts
28-Dec-11 18:12 33.849792 -116.414113 324 6396ft 177kts
28-Dec-11 18:13 33.878153 -116.461849 288 7412ft 188kts
28-Dec-11 18:14 33.893337 -116.521542 286 8545ft 188kts
28-Dec-11 18:15 33.908445 -116.581351 286 9538ft 184kts
28-Dec-11 18:16 33.923168 -116.639142 286 10505ft 173kts
28-Dec-11 18:17 33.936909 -116.692843 286 11517ft 169kts
28-Dec-11 18:18 33.941076 -116.750946 264 12562ft 183kts
28-Dec-11 18:19 33.937081 -116.817324 269 12221ft 229kts
28-Dec-11 18:20 33.936024 -116.893303 269 12084ft 216kts
28-Dec-11 18:21 33.934504 -116.964931 268 12108ft 215kts
28-Dec-11 18:22 33.932824 -117.037539 268 12027ft 217kts
28-Dec-11 18:23 33.930798 -117.109910 268 12030ft 215kts
28-Dec-11 18:24 33.928951 -117.182016 267 12020ft 215kts
28-Dec-11 18:25 33.926626 -117.254320 267 12019ft 215kts
28-Dec-11 18:26 33.924518 -117.326125 267 12019ft 215kts
28-Dec-11 18:27 33.922379 -117.399137 267 12000ft 219kts
28-Dec-11 18:28 33.920247 -117.472351 267 12000ft 218kts
28-Dec-11 18:29 33.917810 -117.545967 266 11999ft 220kts
28-Dec-11 18:30 33.919952 -117.619503 276 11756ft 219kts
28-Dec-11 18:31 33.921046 -117.693006 270 10664ft 219kts
28-Dec-11 18:32 33.921850 -117.767054 271 9555ft 223kts
28-Dec-11 18:33 33.922874 -117.838896 271 8953ft 208kts
28-Dec-11 18:34 33.923946 -117.910582 271 7890ft 217kts
28-Dec-11 18:35 33.931197 -117.983143 281 6964ft 211kts
28-Dec-11 18:36 33.942748 -118.050525 281 6988ft 213kts
28-Dec-11 18:37 33.955539 -118.126008 281 5779ft 237kts
28-Dec-11 18:38 33.956180 -118.204017 264 4311ft 228kts
28-Dec-11 18:39 33.947118 -118.289310 264 2525ft 210kts
28-Dec-11 18:40 33.941812 -118.338919 265 1234ft 162kts
28-Dec-11 18:41 33.936900 -118.390198 265 130ft 122kts
28-Dec-11 18:42 33.934139 -118.403065 191 130ft 0kts
28-Dec-11 18:43 33.933634 -118.402093 178 130ft 16kts
28-Dec-11 18:44 33.933109 -118.402029 174 130ft 0kts

Navigation Log

Ident Type
Flight plan parsing failed, navigation log unavailable